Time;durP1;ratioP1;P1;durP2;ratioP2;P2;SDS_P1;SDS_P2;PMS_P1;PMS_P2;Temp;Humidity;BMP_temperature;BMP_pressure;BME280_temperature;BME280_humidity;BME280_pressure;Samples;Min_cycle;Max_cycle;Signal;HPM_P1;HPM_P2
2023/12/23 00:01:18;;;;;;;;;;;;;;;;;;4953447;28;19929;-72
2023/12/23 00:03:44;;;;;;;;;;;;;;;;;;4970260;28;20024;-72
2023/12/23 00:06:10;;;;;;;;;;;;;;;;;;4972718;28;20037;-73
2023/12/23 00:08:36;;;;;;;;;;;;;;;;;;4954694;28;20367;-73
2023/12/23 00:11:02;;;;;;;;;;;;;;;;;;4946479;28;19926;-73
2023/12/23 00:13:28;;;;;;;;;;;;;;;;;;4955133;28;19926;-73
2023/12/23 00:15:54;;;;;;;;;;;;;;;;;;4950581;28;19969;-73
2023/12/23 00:18:20;;;;;;;;;;;;;;;;;;4950543;28;19922;-73
2023/12/23 00:20:47;;;;;;;;;;;;;;;;;;4956350;28;19930;-73
2023/12/23 00:23:13;;;;;;;;;;;;;;;;;;4954626;28;19977;-73
2023/12/23 00:25:39;;;;;;;;;;;;;;;;;;4954851;28;19922;-74
2023/12/23 00:28:04;;;;;;;;;;;;;;;;;;4956820;28;20246;-73
2023/12/23 00:30:30;;;;;;;;;;;;;;;;;;4953436;28;19930;-73
2023/12/23 00:32:56;;;;;;;;;;;;;;;;;;4968250;28;19976;-73
2023/12/23 00:35:22;;;;;;;;;;;;;;;;;;4953786;28;19961;-73
2023/12/23 00:37:48;;;;;;;;;;;;;;;;;;4983305;28;19926;-73
2023/12/23 00:40:14;;;;;;;;;;;;;;;;;;4951674;28;19926;-72
2023/12/23 00:42:40;;;;;;;;;;;;;;;;;;4951686;28;19931;-72
2023/12/23 00:45:06;;;;;;;;;;;;;;;;;;4953227;28;19926;-72
2023/12/23 00:47:32;;;;;;;;;;;;;;;;;;4961483;28;19925;-72
2023/12/23 00:49:58;;;;;;;;;;;;;;;;;;4966253;28;19928;-72
2023/12/23 00:52:24;;;;;;;;;;;;;;;;;;4958837;28;19929;-73
2023/12/23 00:54:50;;;;;;;;;;;;;;;;;;4955745;28;20481;-73
2023/12/23 00:57:16;;;;;;;;;;;;;;;;;;4940279;28;20506;-73
2023/12/23 00:59:42;;;;;;;;;;;;;;;;;;4973058;28;20028;-73
2023/12/23 01:02:08;;;;;;;;;;;;;;;;;;4954107;28;19933;-73
2023/12/23 01:04:34;;;;;;;;;;;;;;;;;;4955088;28;19922;-73
2023/12/23 01:07:00;;;;;;;;;;;;;;;;;;4970725;28;19929;-73
2023/12/23 01:09:26;;;;;;;;;;;;;;;;;;4957568;28;20372;-73
2023/12/23 01:11:52;;;;;;;;;;;;;;;;;;4948723;28;19923;-73
2023/12/23 01:14:18;;;;;;;;;;;;;;;;;;4960165;28;19923;-73
2023/12/23 01:16:44;;;;;;;;;;;;;;;;;;4954931;28;19931;-73
2023/12/23 01:19:10;;;;;;;;;;;;;;;;;;4943642;28;20391;-73
2023/12/23 01:21:36;;;;;;;;;;;;;;;;;;4961387;28;20005;-73
2023/12/23 01:24:02;;;;;;;;;;;;;;;;;;4964462;28;20300;-73
2023/12/23 01:26:28;;;;;;;;;;;;;;;;;;4959613;28;19932;-73
2023/12/23 01:29:00;;;;;;;;;;;;;;;;;;4952996;28;19922;-73
2023/12/23 01:31:25;;;;;;;;;;;;;;;;;;4986161;28;20647;-73
2023/12/23 01:33:51;;;;;;;;;;;;;;;;;;4959068;28;20005;-73
2023/12/23 01:36:17;;;;;;;;;;;;;;;;;;4961695;28;19937;-73
2023/12/23 01:38:43;;;;;;;;;;;;;;;;;;4947337;28;19956;-73
2023/12/23 01:41:09;;;;;;;;;;;;;;;;;;4968281;28;20407;-73
2023/12/23 01:43:35;;;;;;;;;;;;;;;;;;4965697;28;19922;-73
2023/12/23 01:46:01;;;;;;;;;;;;;;;;;;4958200;28;20004;-73
2023/12/23 01:48:27;;;;;;;;;;;;;;;;;;4949883;28;20001;-73
2023/12/23 01:50:53;;;;;;;;;;;;;;;;;;4959481;28;19922;-73
2023/12/23 01:53:19;;;;;;;;;;;;;;;;;;4951369;28;20336;-73
2023/12/23 01:55:45;;;;;;;;;;;;;;;;;;4947677;28;19930;-73
2023/12/23 01:58:11;;;;;;;;;;;;;;;;;;4936435;28;19926;-73
2023/12/23 02:00:36;;;;;;;;;;;;;;;;;;4948153;28;19929;-73
2023/12/23 02:03:02;;;;;;;;;;;;;;;;;;4951902;28;19980;-72
2023/12/23 02:05:28;;;;;;;;;;;;;;;;;;4952388;28;20359;-72
2023/12/23 02:07:54;;;;;;;;;;;;;;;;;;4954015;28;19963;-72
2023/12/23 02:10:20;;;;;;;;;;;;;;;;;;4968842;28;19922;-73
2023/12/23 02:12:46;;;;;;;;;;;;;;;;;;4966596;28;19930;-73
2023/12/23 02:15:15;;;;;;;;;;;;;;;;;;4949355;28;20010;-73
2023/12/23 02:17:41;;;;;;;;;;;;;;;;;;4972085;28;19930;-73
2023/12/23 02:20:07;;;;;;;;;;;;;;;;;;4949553;28;19941;-73
2023/12/23 02:22:33;;;;;;;;;;;;;;;;;;4966814;28;20017;-73
2023/12/23 02:24:59;;;;;;;;;;;;;;;;;;4956894;28;19930;-72
2023/12/23 02:27:25;;;;;;;;;;;;;;;;;;4973749;28;19930;-72
2023/12/23 02:29:50;;;;;;;;;;;;;;;;;;4940804;28;20312;-71
2023/12/23 02:32:16;;;;;;;;;;;;;;;;;;4958925;28;19926;-72
2023/12/23 02:34:42;;;;;;;;;;;;;;;;;;4971627;28;19926;-71
2023/12/23 02:37:08;;;;;;;;;;;;;;;;;;4943059;28;19930;-73
2023/12/23 02:39:34;;;;;;;;;;;;;;;;;;4956120;28;19922;-73
2023/12/23 02:42:00;;;;;;;;;;;;;;;;;;4957948;28;20516;-73
2023/12/23 02:44:26;;;;;;;;;;;;;;;;;;4956080;28;20475;-73
2023/12/23 02:46:52;;;;;;;;;;;;;;;;;;4958751;28;20385;-73
2023/12/23 02:49:18;;;;;;;;;;;;;;;;;;4965235;28;19930;-73
2023/12/23 02:51:44;;;;;;;;;;;;;;;;;;4957982;28;19928;-73
2023/12/23 02:54:10;;;;;;;;;;;;;;;;;;4959022;28;19926;-71
2023/12/23 02:56:35;;;;;;;;;;;;;;;;;;4963209;28;20347;-71
2023/12/23 02:59:01;;;;;;;;;;;;;;;;;;4962163;28;19926;-72
2023/12/23 03:01:27;;;;;;;;;;;;;;;;;;4966061;28;20013;-72
2023/12/23 03:03:53;;;;;;;;;;;;;;;;;;4955196;28;20328;-72
2023/12/23 03:06:19;;;;;;;;;;;;;;;;;;4942891;28;19922;-72
2023/12/23 03:08:45;;;;;;;;;;;;;;;;;;4961899;28;19953;-73
2023/12/23 03:11:11;;;;;;;;;;;;;;;;;;4976032;28;19922;-72
2023/12/23 03:13:37;;;;;;;;;;;;;;;;;;4960897;28;19988;-73
2023/12/23 03:16:03;;;;;;;;;;;;;;;;;;4963878;28;20883;-73
2023/12/23 03:18:29;;;;;;;;;;;;;;;;;;4947772;28;20010;-73
2023/12/23 03:20:55;;;;;;;;;;;;;;;;;;4950315;28;19980;-73
2023/12/23 03:23:21;;;;;;;;;;;;;;;;;;4968680;28;19952;-72
2023/12/23 03:25:47;;;;;;;;;;;;;;;;;;4969522;28;19929;-71
2023/12/23 03:28:13;;;;;;;;;;;;;;;;;;4964407;28;19925;-73
2023/12/23 03:30:39;;;;;;;;;;;;;;;;;;4961140;28;20048;-72
2023/12/23 03:33:05;;;;;;;;;;;;;;;;;;4958782;28;19933;-72
2023/12/23 03:35:31;;;;;;;;;;;;;;;;;;4966876;28;19937;-72
2023/12/23 03:37:56;;;;;;;;;;;;;;;;;;4961522;28;19923;-72
2023/12/23 03:40:22;;;;;;;;;;;;;;;;;;4963999;28;19934;-72
2023/12/23 03:42:48;;;;;;;;;;;;;;;;;;4965860;28;20365;-73
2023/12/23 03:45:16;;;;;;;;;;;;;;;;;;4959800;28;19922;-73
2023/12/23 03:47:42;;;;;;;;;;;;;;;;;;4944582;28;19922;-73
2023/12/23 03:50:09;;;;;;;;;;;;;;;;;;4956895;28;19928;-73
2023/12/23 03:52:35;;;;;;;;;;;;;;;;;;4976932;28;19932;-73
2023/12/23 03:55:01;;;;;;;;;;;;;;;;;;4960080;28;19922;-73
2023/12/23 03:57:27;;;;;;;;;;;;;;;;;;4963206;28;20792;-73
2023/12/23 03:59:53;;;;;;;;;;;;;;;;;;4958891;28;19926;-73
2023/12/23 04:02:19;;;;;;;;;;;;;;;;;;4965511;28;19930;-73
2023/12/23 04:04:45;;;;;;;;;;;;;;;;;;4960703;28;19929;-73
2023/12/23 04:07:12;;;;;;;;;;;;;;;;;;4952461;28;20501;-73
2023/12/23 04:09:37;;;;;;;;;;;;;;;;;;4952097;28;19922;-73
2023/12/23 04:12:03;;;;;;;;;;;;;;;;;;4957696;28;19969;-73
2023/12/23 04:14:29;;;;;;;;;;;;;;;;;;4956677;28;19922;-73
2023/12/23 04:16:55;;;;;;;;;;;;;;;;;;4959541;28;19934;-73
2023/12/23 04:19:21;;;;;;;;;;;;;;;;;;4973178;28;19985;-72
2023/12/23 04:21:47;;;;;;;;;;;;;;;;;;4952697;28;19922;-72
2023/12/23 04:24:13;;;;;;;;;;;;;;;;;;4962583;28;19923;-73
2023/12/23 04:26:39;;;;;;;;;;;;;;;;;;4945434;28;19930;-73
2023/12/23 04:29:05;;;;;;;;;;;;;;;;;;4957548;28;19922;-73
2023/12/23 04:31:31;;;;;;;;;;;;;;;;;;4974016;28;19929;-73
2023/12/23 04:33:57;;;;;;;;;;;;;;;;;;4964920;28;19929;-73
2023/12/23 04:36:23;;;;;;;;;;;;;;;;;;4962961;28;19957;-73
2023/12/23 04:38:49;;;;;;;;;;;;;;;;;;4988859;28;19982;-73
2023/12/23 04:41:14;;;;;;;;;;;;;;;;;;4957151;28;19929;-73
2023/12/23 04:43:40;;;;;;;;;;;;;;;;;;4962751;28;19929;-73
2023/12/23 04:46:06;;;;;;;;;;;;;;;;;;4954962;28;20283;-73
2023/12/23 04:48:32;;;;;;;;;;;;;;;;;;4950468;28;19922;-73
2023/12/23 04:50:58;;;;;;;;;;;;;;;;;;4951219;28;19922;-73
2023/12/23 04:53:24;;;;;;;;;;;;;;;;;;4960706;28;19933;-73
2023/12/23 04:55:50;;;;;;;;;;;;;;;;;;4960340;28;19929;-73
2023/12/23 04:58:16;;;;;;;;;;;;;;;;;;4952999;28;20273;-73
2023/12/23 05:00:42;;;;;;;;;;;;;;;;;;4953695;28;19929;-73
2023/12/23 05:03:08;;;;;;;;;;;;;;;;;;4953539;28;19923;-73
2023/12/23 05:05:34;;;;;;;;;;;;;;;;;;4964734;28;20005;-74
2023/12/23 05:08:00;;;;;;;;;;;;;;;;;;4965481;28;19922;-74
2023/12/23 05:10:26;;;;;;;;;;;;;;;;;;4956242;28;20328;-74
2023/12/23 05:12:51;;;;;;;;;;;;;;;;;;4940234;28;20295;-73
2023/12/23 05:15:17;;;;;;;;;;;;;;;;;;4966088;28;19932;-73
2023/12/23 05:17:43;;;;;;;;;;;;;;;;;;4952922;28;20005;-73
2023/12/23 05:20:10;;;;;;;;;;;;;;;;;;4955694;28;19929;-73
2023/12/23 05:22:36;;;;;;;;;;;;;;;;;;4954105;28;20260;-73
2023/12/23 05:25:02;;;;;;;;;;;;;;;;;;4952489;28;19946;-73
2023/12/23 05:27:28;;;;;;;;;;;;;;;;;;4969226;28;19992;-74
2023/12/23 05:29:56;;;;;;;;;;;;;;;;;;4953716;28;20549;-73
2023/12/23 05:32:22;;;;;;;;;;;;;;;;;;4949688;28;19922;-73
2023/12/23 05:34:48;;;;;;;;;;;;;;;;;;4959018;28;19926;-74
2023/12/23 05:37:14;;;;;;;;;;;;;;;;;;4940886;28;19953;-72
2023/12/23 05:39:40;;;;;;;;;;;;;;;;;;4960896;28;19989;-72
2023/12/23 05:42:06;;;;;;;;;;;;;;;;;;4971702;28;19977;-72
2023/12/23 05:44:32;;;;;;;;;;;;;;;;;;4953177;28;19926;-72
2023/12/23 05:46:58;;;;;;;;;;;;;;;;;;4976117;28;19949;-72
2023/12/23 05:49:24;;;;;;;;;;;;;;;;;;4956148;28;19937;-72
2023/12/23 05:51:50;;;;;;;;;;;;;;;;;;4954446;28;19930;-72
2023/12/23 05:54:16;;;;;;;;;;;;;;;;;;4954550;28;19933;-73
2023/12/23 05:56:42;;;;;;;;;;;;;;;;;;4973837;28;20347;-72
2023/12/23 05:59:08;;;;;;;;;;;;;;;;;;4966299;28;19926;-74
2023/12/23 06:01:34;;;;;;;;;;;;;;;;;;4957392;28;20005;-74
2023/12/23 06:04:00;;;;;;;;;;;;;;;;;;4955161;28;20050;-74
2023/12/23 06:06:26;;;;;;;;;;;;;;;;;;4960040;28;19926;-72
2023/12/23 06:08:51;;;;;;;;;;;;;;;;;;4962598;28;19933;-73
2023/12/23 06:11:17;;;;;;;;;;;;;;;;;;4960264;28;20319;-72
2023/12/23 06:13:43;;;;;;;;;;;;;;;;;;4967847;28;19977;-72
2023/12/23 06:16:09;;;;;;;;;;;;;;;;;;4972681;28;19922;-73
2023/12/23 06:18:35;;;;;;;;;;;;;;;;;;4959309;28;19926;-73
2023/12/23 06:21:01;;;;;;;;;;;;;;;;;;4961207;28;19992;-73
2023/12/23 06:23:27;;;;;;;;;;;;;;;;;;4959882;28;19929;-73
2023/12/23 06:25:53;;;;;;;;;;;;;;;;;;4951140;28;19922;-73
2023/12/23 06:28:19;;;;;;;;;;;;;;;;;;4952416;28;20458;-73
2023/12/23 06:30:45;;;;;;;;;;;;;;;;;;4954416;28;19930;-73
2023/12/23 06:33:11;;;;;;;;;;;;;;;;;;4956494;28;19922;-73
2023/12/23 06:35:37;;;;;;;;;;;;;;;;;;4957480;28;20394;-73
2023/12/23 06:38:02;;;;;;;;;;;;;;;;;;4964672;28;20266;-73
2023/12/23 06:40:28;;;;;;;;;;;;;;;;;;4969388;28;19937;-74
2023/12/23 06:42:54;;;;;;;;;;;;;;;;;;4968149;28;19922;-73
2023/12/23 06:45:20;;;;;;;;;;;;;;;;;;4958247;28;19930;-73
2023/12/23 06:47:46;;;;;;;;;;;;;;;;;;4956356;28;20300;-72
2023/12/23 06:50:12;;;;;;;;;;;;;;;;;;4953009;28;19929;-72
2023/12/23 06:52:38;;;;;;;;;;;;;;;;;;4965255;28;20005;-73
2023/12/23 06:55:04;;;;;;;;;;;;;;;;;;4961877;28;20672;-72
2023/12/23 06:57:30;;;;;;;;;;;;;;;;;;4963520;28;19996;-73
2023/12/23 06:59:58;;;;;;;;;;;;;;;;;;4942102;28;19949;-73
2023/12/23 07:02:24;;;;;;;;;;;;;;;;;;4979701;28;19922;-73
2023/12/23 07:04:50;;;;;;;;;;;;;;;;;;4960978;28;20245;-73
2023/12/23 07:07:16;;;;;;;;;;;;;;;;;;4963693;28;20010;-73
2023/12/23 07:09:42;;;;;;;;;;;;;;;;;;4957311;28;19931;-73
2023/12/23 07:12:08;;;;;;;;;;;;;;;;;;5000213;23;19976;-70
2023/12/23 07:14:34;;;;;;;;;;;;;;;;;;5005836;28;19957;-69
2023/12/23 07:17:00;;;;;;;;;;;;;;;;;;4981462;28;20346;-70
2023/12/23 07:19:26;;;;;;;;;;;;;;;;;;4972945;28;19961;-70
2023/12/23 07:21:53;;;;;;;;;;;;;;;;;;4976624;28;19964;-68
2023/12/23 07:24:19;;;;;;;;;;;;;;;;;;4972646;28;19926;-69
2023/12/23 07:26:45;;;;;;;;;;;;;;;;;;4980715;28;19941;-70
2023/12/23 07:29:11;;;;;;;;;;;;;;;;;;4985571;28;20318;-69
2023/12/23 07:31:36;;;;;;;;;;;;;;;;;;4990503;28;19969;-69
2023/12/23 07:34:03;;;;;;;;;;;;;;;;;;4992953;28;20008;-70
2023/12/23 07:36:28;;;;;;;;;;;;;;;;;;4978075;28;20291;-70
2023/12/23 07:38:54;;;;;;;;;;;;;;;;;;4975567;28;19922;-70
2023/12/23 07:41:20;;;;;;;;;;;;;;;;;;4976015;28;19936;-70
2023/12/23 07:43:46;;;;;;;;;;;;;;;;;;4989252;28;19936;-69
2023/12/23 07:46:12;;;;;;;;;;;;;;;;;;4974038;28;19922;-70
2023/12/23 07:48:38;;;;;;;;;;;;;;;;;;4971143;28;19921;-70
2023/12/23 07:51:04;;;;;;;;;;;;;;;;;;4975664;28;19925;-70
2023/12/23 07:53:30;;;;;;;;;;;;;;;;;;4993461;28;20359;-70
2023/12/23 07:55:56;;;;;;;;;;;;;;;;;;4975972;28;20009;-70
2023/12/23 07:58:22;;;;;;;;;;;;;;;;;;4991013;28;19922;-69
2023/12/23 08:00:48;;;;;;;;;;;;;;;;;;4983248;28;19930;-69
2023/12/23 08:03:13;;;;;;;;;;;;;;;;;;4974865;28;19964;-70
2023/12/23 08:05:39;;;;;;;;;;;;;;;;;;4966179;28;20299;-70
2023/12/23 08:08:06;;;;;;;;;;;;;;;;;;4984051;28;20378;-70
2023/12/23 08:10:33;;;;;;;;;;;;;;;;;;4987252;28;20372;-70
2023/12/23 08:12:59;;;;;;;;;;;;;;;;;;4989597;28;19973;-70
2023/12/23 08:15:25;;;;;;;;;;;;;;;;;;4986544;28;19925;-70
2023/12/23 08:17:50;;;;;;;;;;;;;;;;;;4969265;28;20418;-69
2023/12/23 08:20:16;;;;;;;;;;;;;;;;;;4984357;28;19952;-70
2023/12/23 08:22:42;;;;;;;;;;;;;;;;;;4989614;28;19922;-70
2023/12/23 08:25:09;;;;;;;;;;;;;;;;;;4971574;28;19926;-69
2023/12/23 08:27:34;;;;;;;;;;;;;;;;;;4968619;28;19929;-69
2023/12/23 08:30:00;;;;;;;;;;;;;;;;;;4972695;28;19922;-69
2023/12/23 08:32:27;;;;;;;;;;;;;;;;;;4969920;28;19926;-69
2023/12/23 08:34:53;;;;;;;;;;;;;;;;;;4990581;28;20055;-70
2023/12/23 08:37:20;;;;;;;;;;;;;;;;;;4987613;28;20013;-70
2023/12/23 08:39:45;;;;;;;;;;;;;;;;;;4973607;28;19929;-70
2023/12/23 08:42:11;;;;;;;;;;;;;;;;;;4981047;28;19926;-69
2023/12/23 08:44:37;;;;;;;;;;;;;;;;;;4992469;28;19983;-69
2023/12/23 08:47:03;;;;;;;;;;;;;;;;;;4972908;28;19928;-69
2023/12/23 08:49:29;;;;;;;;;;;;;;;;;;4990355;28;19932;-69
2023/12/23 08:51:55;;;;;;;;;;;;;;;;;;4976366;28;19955;-69
2023/12/23 08:54:21;;;;;;;;;;;;;;;;;;4990966;28;19922;-70
2023/12/23 08:56:47;;;;;;;;;;;;;;;;;;4980724;28;19921;-70
2023/12/23 08:59:13;;;;;;;;;;;;;;;;;;4981013;28;20374;-69
2023/12/23 09:01:39;;;;;;;;;;;;;;;;;;4987448;28;20016;-69
2023/12/23 09:04:05;;;;;;;;;;;;;;;;;;4989601;28;19976;-70
2023/12/23 09:06:30;;;;;;;;;;;;;;;;;;4994905;28;19928;-70
2023/12/23 09:08:57;;;;;;;;;;;;;;;;;;4977831;28;19926;-71
2023/12/23 09:11:23;;;;;;;;;;;;;;;;;;4991226;28;19929;-71
2023/12/23 09:13:49;;;;;;;;;;;;;;;;;;4997528;28;19929;-70
2023/12/23 09:16:16;;;;;;;;;;;;;;;;;;4992179;28;19932;-70
2023/12/23 09:18:42;;;;;;;;;;;;;;;;;;4982721;28;19922;-70
2023/12/23 09:21:08;;;;;;;;;;;;;;;;;;4968509;28;19985;-70
2023/12/23 09:23:34;;;;;;;;;;;;;;;;;;4961026;28;19928;-70
2023/12/23 09:26:00;;;;;;;;;;;;;;;;;;4970904;28;19991;-70
2023/12/23 09:28:26;;;;;;;;;;;;;;;;;;4988088;28;19926;-70
2023/12/23 09:30:52;;;;;;;;;;;;;;;;;;4976330;28;19949;-71
2023/12/23 09:33:18;;;;;;;;;;;;;;;;;;4988738;28;19922;-70
2023/12/23 09:35:44;;;;;;;;;;;;;;;;;;4983447;28;20004;-70
2023/12/23 09:38:10;;;;;;;;;;;;;;;;;;4975142;28;20366;-70
2023/12/23 09:40:36;;;;;;;;;;;;;;;;;;4974648;28;19930;-70
2023/12/23 09:43:03;;;;;;;;;;;;;;;;;;4973945;28;20292;-69
2023/12/23 09:45:29;;;;;;;;;;;;;;;;;;4985476;28;19926;-69
2023/12/23 09:47:55;;;;;;;;;;;;;;;;;;4976072;28;19973;-69
2023/12/23 09:50:21;;;;;;;;;;;;;;;;;;4983603;28;19922;-69
2023/12/23 09:52:47;;;;;;;;;;;;;;;;;;4990230;28;19926;-69
2023/12/23 09:55:13;;;;;;;;;;;;;;;;;;4990421;28;19922;-69
2023/12/23 09:57:39;;;;;;;;;;;;;;;;;;4974397;28;20287;-70
2023/12/23 10:00:05;;;;;;;;;;;;;;;;;;4988167;28;19922;-69
2023/12/23 10:02:31;;;;;;;;;;;;;;;;;;4984579;28;19926;-69
2023/12/23 10:04:57;;;;;;;;;;;;;;;;;;4966373;28;20042;-69
2023/12/23 10:07:23;;;;;;;;;;;;;;;;;;4987792;28;19922;-69
2023/12/23 10:09:49;;;;;;;;;;;;;;;;;;4996089;28;19999;-69
2023/12/23 10:12:16;;;;;;;;;;;;;;;;;;4970181;28;20343;-69
2023/12/23 10:14:43;;;;;;;;;;;;;;;;;;4996676;28;19945;-69
2023/12/23 10:17:09;;;;;;;;;;;;;;;;;;4983569;28;19926;-69
2023/12/23 10:19:35;;;;;;;;;;;;;;;;;;4989612;28;19928;-69
2023/12/23 10:22:02;;;;;;;;;;;;;;;;;;4990017;28;19933;-69
2023/12/23 10:24:27;;;;;;;;;;;;;;;;;;4993724;28;19930;-69
2023/12/23 10:26:53;;;;;;;;;;;;;;;;;;4994629;28;20005;-69
2023/12/23 10:29:19;;;;;;;;;;;;;;;;;;4977582;28;19937;-69
2023/12/23 10:31:45;;;;;;;;;;;;;;;;;;4991077;28;19926;-69
2023/12/23 10:34:11;;;;;;;;;;;;;;;;;;4980518;28;19921;-69
2023/12/23 10:36:37;;;;;;;;;;;;;;;;;;4968925;28;19929;-69
2023/12/23 10:39:03;;;;;;;;;;;;;;;;;;4986017;28;20387;-68
2023/12/23 10:41:29;;;;;;;;;;;;;;;;;;4967271;28;19925;-69
2023/12/23 10:43:55;;;;;;;;;;;;;;;;;;4986529;28;20615;-69
2023/12/23 10:46:21;;;;;;;;;;;;;;;;;;4978168;28;19922;-69
2023/12/23 10:48:47;;;;;;;;;;;;;;;;;;4991220;28;20291;-68
2023/12/23 10:51:13;;;;;;;;;;;;;;;;;;4981579;28;19937;-69
2023/12/23 10:53:39;;;;;;;;;;;;;;;;;;4987546;28;19929;-69
2023/12/23 10:56:05;;;;;;;;;;;;;;;;;;4988676;28;19944;-69
2023/12/23 10:58:31;;;;;;;;;;;;;;;;;;4997665;28;19930;-69
2023/12/23 11:00:57;;;;;;;;;;;;;;;;;;4965338;28;19926;-69
2023/12/23 11:03:23;;;;;;;;;;;;;;;;;;4958202;28;19945;-69
2023/12/23 11:05:49;;;;;;;;;;;;;;;;;;4976204;28;19929;-69
2023/12/23 11:08:15;;;;;;;;;;;;;;;;;;4986906;28;19929;-69
2023/12/23 11:10:41;;;;;;;;;;;;;;;;;;4992085;28;19929;-69
2023/12/23 11:13:07;;;;;;;;;;;;;;;;;;4977598;28;19930;-69
2023/12/23 11:15:33;;;;;;;;;;;;;;;;;;4988276;28;19925;-69
2023/12/23 11:18:01;;;;;;;;;;;;;;;;;;4994704;28;19948;-69
2023/12/23 11:20:27;;;;;;;;;;;;;;;;;;4963002;28;19930;-69
2023/12/23 11:22:53;;;;;;;;;;;;;;;;;;4971102;28;19945;-69
2023/12/23 11:25:19;;;;;;;;;;;;;;;;;;4990907;28;20383;-69
2023/12/23 11:27:47;;;;;;;;;;;;;;;;;;4982703;28;19925;-69
2023/12/23 11:30:13;;;;;;;;;;;;;;;;;;4994088;28;19956;-69
2023/12/23 11:32:39;;;;;;;;;;;;;;;;;;4997858;28;19922;-69
2023/12/23 11:35:04;;;;;;;;;;;;;;;;;;4992535;28;19921;-69
2023/12/23 11:37:31;;;;;;;;;;;;;;;;;;4996357;28;20382;-69
2023/12/23 11:39:56;;;;;;;;;;;;;;;;;;4985942;28;19929;-69
2023/12/23 11:42:22;;;;;;;;;;;;;;;;;;4984184;28;19967;-68
2023/12/23 11:44:48;;;;;;;;;;;;;;;;;;4977719;28;20363;-68
2023/12/23 11:47:16;;;;;;;;;;;;;;;;;;4989216;28;19921;-68
2023/12/23 11:49:42;;;;;;;;;;;;;;;;;;4982850;28;19926;-68
2023/12/23 11:52:08;;;;;;;;;;;;;;;;;;4988629;28;19933;-69
2023/12/23 11:54:34;;;;;;;;;;;;;;;;;;4980865;28;19926;-69
2023/12/23 11:57:00;;;;;;;;;;;;;;;;;;4986876;28;19925;-68
2023/12/23 11:59:25;;;;;;;;;;;;;;;;;;4985021;28;19992;-69
2023/12/23 12:01:51;;;;;;;;;;;;;;;;;;4994905;28;19921;-69
2023/12/23 12:04:17;;;;;;;;;;;;;;;;;;4973090;28;19926;-69
2023/12/23 12:06:43;;;;;;;;;;;;;;;;;;4986939;28;19922;-68
2023/12/23 12:09:09;;;;;;;;;;;;;;;;;;4998129;28;20414;-68
2023/12/23 12:11:35;;;;;;;;;;;;;;;;;;5003299;28;19933;-68
2023/12/23 12:14:01;;;;;;;;;;;;;;;;;;4994542;28;19926;-68
2023/12/23 12:16:27;;;;;;;;;;;;;;;;;;5003163;28;19922;-68
2023/12/23 12:18:53;;;;;;;;;;;;;;;;;;4999797;28;20321;-68
2023/12/23 12:21:19;;;;;;;;;;;;;;;;;;4992465;28;19964;-68
2023/12/23 12:23:45;;;;;;;;;;;;;;;;;;4986665;28;20487;-68
2023/12/23 12:26:11;;;;;;;;;;;;;;;;;;4979298;28;19968;-68
2023/12/23 12:28:37;;;;;;;;;;;;;;;;;;4993681;28;19926;-68
2023/12/23 12:31:03;;;;;;;;;;;;;;;;;;4989888;28;20399;-68
2023/12/23 12:33:28;;;;;;;;;;;;;;;;;;4988131;28;20287;-68
2023/12/23 12:35:54;;;;;;;;;;;;;;;;;;4990121;28;19921;-68
2023/12/23 12:38:20;;;;;;;;;;;;;;;;;;4996359;28;19945;-68
2023/12/23 12:40:46;;;;;;;;;;;;;;;;;;4972675;28;19937;-68
2023/12/23 12:43:12;;;;;;;;;;;;;;;;;;4965907;28;20335;-69
2023/12/23 12:45:40;;;;;;;;;;;;;;;;;;4971097;28;19929;-67
2023/12/23 12:48:06;;;;;;;;;;;;;;;;;;4958719;28;20450;-67
2023/12/23 12:50:32;;;;;;;;;;;;;;;;;;4989611;28;19957;-67
2023/12/23 12:53:01;;;;;;;;;;;;;;;;;;4990924;28;20334;-68
2023/12/23 12:55:27;;;;;;;;;;;;;;;;;;4986468;28;20364;-68
2023/12/23 12:57:53;;;;;;;;;;;;;;;;;;4988704;28;19926;-68
2023/12/23 13:00:19;;;;;;;;;;;;;;;;;;4988647;28;19922;-68
2023/12/23 13:02:45;;;;;;;;;;;;;;;;;;4972395;28;20426;-68
2023/12/23 13:05:11;;;;;;;;;;;;;;;;;;4991581;28;19922;-68
2023/12/23 13:07:37;;;;;;;;;;;;;;;;;;4988855;28;19929;-68
2023/12/23 13:10:03;;;;;;;;;;;;;;;;;;4990687;28;20295;-68
2023/12/23 13:12:29;;;;;;;;;;;;;;;;;;4992259;28;19929;-68
2023/12/23 13:14:57;;;;;;;;;;;;;;;;;;4981033;28;20470;-69
2023/12/23 13:17:23;;;;;;;;;;;;;;;;;;4989102;28;19926;-68
2023/12/23 13:19:49;;;;;;;;;;;;;;;;;;4990431;28;19984;-68
2023/12/23 13:22:15;;;;;;;;;;;;;;;;;;4978081;28;19929;-68
2023/12/23 13:24:41;;;;;;;;;;;;;;;;;;4984667;28;20009;-68
2023/12/23 13:27:07;;;;;;;;;;;;;;;;;;4992896;28;19921;-68
2023/12/23 13:29:33;;;;;;;;;;;;;;;;;;4972992;28;21629;-67
2023/12/23 13:31:59;;;;;;;;;;;;;;;;;;4971400;28;20090;-68
2023/12/23 13:34:25;;;;;;;;;;;;;;;;;;4968787;28;19937;-67
2023/12/23 13:36:51;;;;;;;;;;;;;;;;;;4980362;28;19922;-67
2023/12/23 13:39:17;;;;;;;;;;;;;;;;;;4954360;28;20479;-68
2023/12/23 13:41:42;;;;;;;;;;;;;;;;;;4982335;28;19925;-68
2023/12/23 13:44:08;;;;;;;;;;;;;;;;;;4987718;28;20474;-68
2023/12/23 13:46:35;;;;;;;;;;;;;;;;;;4965932;28;19925;-68
2023/12/23 13:49:00;;;;;;;;;;;;;;;;;;4985908;28;19948;-68
2023/12/23 13:51:26;;;;;;;;;;;;;;;;;;4982761;28;20012;-67
2023/12/23 13:53:52;;;;;;;;;;;;;;;;;;4981036;28;20307;-69
2023/12/23 13:56:18;;;;;;;;;;;;;;;;;;4988931;28;19977;-68
2023/12/23 13:58:44;;;;;;;;;;;;;;;;;;4990038;28;19937;-68
2023/12/23 14:01:10;;;;;;;;;;;;;;;;;;4973828;28;20280;-68
2023/12/23 14:03:36;;;;;;;;;;;;;;;;;;4969913;28;19993;-68
2023/12/23 14:06:02;;;;;;;;;;;;;;;;;;4984744;28;19926;-68
2023/12/23 14:08:28;;;;;;;;;;;;;;;;;;4986578;28;19937;-68
2023/12/23 14:10:54;;;;;;;;;;;;;;;;;;4992089;28;20401;-68
2023/12/23 14:13:20;;;;;;;;;;;;;;;;;;4998555;28;20016;-68
2023/12/23 14:15:46;;;;;;;;;;;;;;;;;;4995599;28;19925;-69
2023/12/23 14:18:12;;;;;;;;;;;;;;;;;;5003880;28;20033;-69
2023/12/23 14:20:38;;;;;;;;;;;;;;;;;;5002027;28;19961;-69
2023/12/23 14:23:04;;;;;;;;;;;;;;;;;;4997537;28;19922;-69
2023/12/23 14:25:30;;;;;;;;;;;;;;;;;;4993449;28;19929;-69
2023/12/23 14:27:56;;;;;;;;;;;;;;;;;;4988573;28;19925;-69
2023/12/23 14:30:22;;;;;;;;;;;;;;;;;;4980634;28;19922;-69
2023/12/23 14:32:48;;;;;;;;;;;;;;;;;;5005472;28;20010;-69
2023/12/23 14:35:13;;;;;;;;;;;;;;;;;;5000234;28;19937;-69
2023/12/23 14:37:39;;;;;;;;;;;;;;;;;;4993968;28;19929;-69
2023/12/23 14:40:05;;;;;;;;;;;;;;;;;;4994346;28;20387;-69
2023/12/23 14:42:31;;;;;;;;;;;;;;;;;;4991250;28;19972;-69
2023/12/23 14:44:57;;;;;;;;;;;;;;;;;;4980337;28;20434;-68
2023/12/23 14:47:23;;;;;;;;;;;;;;;;;;4971018;28;19932;-68
2023/12/23 14:49:49;;;;;;;;;;;;;;;;;;4982716;28;19929;-68
2023/12/23 14:52:15;;;;;;;;;;;;;;;;;;4983812;28;19952;-69
2023/12/23 14:54:41;;;;;;;;;;;;;;;;;;4990016;28;19929;-69
2023/12/23 14:57:07;;;;;;;;;;;;;;;;;;4989002;28;19930;-68
2023/12/23 14:59:33;;;;;;;;;;;;;;;;;;4989128;28;20347;-70
2023/12/23 15:02:01;;;;;;;;;;;;;;;;;;4956390;28;19921;-69
2023/12/23 15:04:27;;;;;;;;;;;;;;;;;;4995923;28;19922;-69
2023/12/23 15:06:53;;;;;;;;;;;;;;;;;;4987461;28;19933;-69
2023/12/23 15:09:19;;;;;;;;;;;;;;;;;;4987418;28;20280;-69
2023/12/23 15:11:45;;;;;;;;;;;;;;;;;;4987044;28;20013;-69
2023/12/23 15:14:11;;;;;;;;;;;;;;;;;;4980832;28;19957;-69
2023/12/23 15:16:37;;;;;;;;;;;;;;;;;;5005209;28;19955;-68
2023/12/23 15:19:06;;;;;;;;;;;;;;;;;;4995040;28;19929;-69
2023/12/23 15:21:32;;;;;;;;;;;;;;;;;;4989929;28;19930;-68
2023/12/23 15:23:58;;;;;;;;;;;;;;;;;;4990617;28;19995;-68
2023/12/23 15:26:27;;;;;;;;;;;;;;;;;;4983499;28;19926;-68
2023/12/23 15:28:53;;;;;;;;;;;;;;;;;;5000517;28;19926;-68
2023/12/23 15:31:18;;;;;;;;;;;;;;;;;;4996714;28;19926;-69
2023/12/23 15:33:44;;;;;;;;;;;;;;;;;;4991072;28;19926;-69
2023/12/23 15:36:12;;;;;;;;;;;;;;;;;;4993121;28;19925;-69
2023/12/23 15:38:38;;;;;;;;;;;;;;;;;;4978244;28;20379;-69
2023/12/23 15:41:04;;;;;;;;;;;;;;;;;;4986221;28;19973;-68
2023/12/23 15:43:30;;;;;;;;;;;;;;;;;;4984614;28;19981;-68
2023/12/23 15:45:56;;;;;;;;;;;;;;;;;;4969943;28;20026;-68
2023/12/23 15:48:22;;;;;;;;;;;;;;;;;;4988443;28;19964;-68
2023/12/23 15:50:48;;;;;;;;;;;;;;;;;;4974121;28;20401;-69
2023/12/23 15:53:15;;;;;;;;;;;;;;;;;;4983082;28;19922;-69
2023/12/23 15:55:41;;;;;;;;;;;;;;;;;;4971739;28;19933;-68
2023/12/23 15:58:07;;;;;;;;;;;;;;;;;;4987805;28;19926;-69
2023/12/23 16:00:33;;;;;;;;;;;;;;;;;;4972478;28;19921;-68
2023/12/23 16:02:59;;;;;;;;;;;;;;;;;;4978781;28;20275;-69
2023/12/23 16:05:25;;;;;;;;;;;;;;;;;;4981748;28;19926;-69
2023/12/23 16:07:51;;;;;;;;;;;;;;;;;;4985988;28;19926;-68
2023/12/23 16:10:17;;;;;;;;;;;;;;;;;;4967044;28;19937;-68
2023/12/23 16:12:43;;;;;;;;;;;;;;;;;;4988360;28;20383;-69
2023/12/23 16:15:09;;;;;;;;;;;;;;;;;;4987079;28;19922;-69
2023/12/23 16:17:35;;;;;;;;;;;;;;;;;;4968620;28;19941;-69
2023/12/23 16:20:02;;;;;;;;;;;;;;;;;;4988660;28;19929;-67
2023/12/23 16:22:28;;;;;;;;;;;;;;;;;;4990446;28;19932;-68
2023/12/23 16:24:54;;;;;;;;;;;;;;;;;;4985909;28;19926;-68
2023/12/23 16:27:20;;;;;;;;;;;;;;;;;;4970380;28;19948;-68
2023/12/23 16:29:46;;;;;;;;;;;;;;;;;;4981740;28;20302;-68
2023/12/23 16:32:12;;;;;;;;;;;;;;;;;;4974496;28;19944;-68
2023/12/23 16:34:38;;;;;;;;;;;;;;;;;;4971638;28;20372;-69
2023/12/23 16:37:04;;;;;;;;;;;;;;;;;;4988068;28;20645;-69